sensor_id;sensor_type;location;lat;lon;timestamp;P1;durP1;ratioP1;P2;durP2;ratioP2
35245;SDS011;21379;50.962;6.960;2023-08-17T00:01:04;11.32;;;8.27;;
35245;SDS011;21379;50.962;6.960;2023-08-17T00:03:31;12.10;;;7.90;;
35245;SDS011;21379;50.962;6.960;2023-08-17T00:05:57;12.85;;;7.93;;
35245;SDS011;21379;50.962;6.960;2023-08-17T00:08:24;14.52;;;8.15;;
35245;SDS011;21379;50.962;6.960;2023-08-17T00:10:51;8.75;;;6.82;;
35245;SDS011;21379;50.962;6.960;2023-08-17T00:13:17;9.63;;;7.45;;
35245;SDS011;21379;50.962;6.960;2023-08-17T00:15:44;10.48;;;6.70;;
35245;SDS011;21379;50.962;6.960;2023-08-17T00:18:12;10.35;;;6.63;;
35245;SDS011;21379;50.962;6.960;2023-08-17T00:20:39;12.02;;;6.97;;
35245;SDS011;21379;50.962;6.960;2023-08-17T00:23:06;8.93;;;6.68;;
35245;SDS011;21379;50.962;6.960;2023-08-17T00:25:33;12.82;;;6.95;;
35245;SDS011;21379;50.962;6.960;2023-08-17T00:27:59;8.38;;;6.13;;
35245;SDS011;21379;50.962;6.960;2023-08-17T00:30:26;10.43;;;6.82;;
35245;SDS011;21379;50.962;6.960;2023-08-17T00:32:53;11.90;;;7.35;;
35245;SDS011;21379;50.962;6.960;2023-08-17T00:35:21;10.52;;;7.13;;
35245;SDS011;21379;50.962;6.960;2023-08-17T00:37:48;9.30;;;6.95;;
35245;SDS011;21379;50.962;6.960;2023-08-17T00:40:15;11.20;;;6.82;;
35245;SDS011;21379;50.962;6.960;2023-08-17T00:42:41;8.95;;;6.43;;
35245;SDS011;21379;50.962;6.960;2023-08-17T00:45:08;9.63;;;7.43;;
35245;SDS011;21379;50.962;6.960;2023-08-17T00:47:35;11.55;;;7.13;;
35245;SDS011;21379;50.962;6.960;2023-08-17T00:50:02;10.85;;;6.85;;
35245;SDS011;21379;50.962;6.960;2023-08-17T00:52:31;12.18;;;7.45;;
35245;SDS011;21379;50.962;6.960;2023-08-17T00:54:58;10.68;;;7.32;;
35245;SDS011;21379;50.962;6.960;2023-08-17T00:57:26;8.77;;;6.40;;
35245;SDS011;21379;50.962;6.960;2023-08-17T00:59:53;10.73;;;8.00;;
35245;SDS011;21379;50.962;6.960;2023-08-17T01:02:20;12.48;;;7.65;;
35245;SDS011;21379;50.962;6.960;2023-08-17T01:04:47;10.18;;;7.40;;
35245;SDS011;21379;50.962;6.960;2023-08-17T01:07:13;8.88;;;7.07;;
35245;SDS011;21379;50.962;6.960;2023-08-17T01:09:42;11.23;;;7.85;;
35245;SDS011;21379;50.962;6.960;2023-08-17T01:14:56;9.88;;;7.13;;
35245;SDS011;21379;50.962;6.960;2023-08-17T01:17:26;12.30;;;6.78;;
35245;SDS011;21379;50.962;6.960;2023-08-17T01:19:56;11.40;;;7.18;;
35245;SDS011;21379;50.962;6.960;2023-08-17T01:22:23;10.27;;;6.93;;
35245;SDS011;21379;50.962;6.960;2023-08-17T01:24:54;9.48;;;7.07;;
35245;SDS011;21379;50.962;6.960;2023-08-17T01:27:22;10.48;;;7.00;;
35245;SDS011;21379;50.962;6.960;2023-08-17T01:29:49;10.23;;;7.05;;
35245;SDS011;21379;50.962;6.960;2023-08-17T01:32:18;10.73;;;6.97;;
35245;SDS011;21379;50.962;6.960;2023-08-17T01:34:50;9.25;;;6.68;;
35245;SDS011;21379;50.962;6.960;2023-08-17T01:37:20;7.93;;;7.00;;
35245;SDS011;21379;50.962;6.960;2023-08-17T01:39:49;9.57;;;6.28;;
35245;SDS011;21379;50.962;6.960;2023-08-17T01:42:20;11.07;;;6.68;;
35245;SDS011;21379;50.962;6.960;2023-08-17T01:44:48;8.32;;;5.90;;
35245;SDS011;21379;50.962;6.960;2023-08-17T01:47:15;9.55;;;5.90;;
35245;SDS011;21379;50.962;6.960;2023-08-17T01:49:41;8.25;;;6.03;;
35245;SDS011;21379;50.962;6.960;2023-08-17T01:52:08;7.85;;;5.65;;
35245;SDS011;21379;50.962;6.960;2023-08-17T01:54:35;8.30;;;5.70;;
35245;SDS011;21379;50.962;6.960;2023-08-17T01:57:03;7.60;;;5.88;;
35245;SDS011;21379;50.962;6.960;2023-08-17T01:59:30;9.32;;;5.93;;
35245;SDS011;21379;50.962;6.960;2023-08-17T02:01:57;8.45;;;5.55;;
35245;SDS011;21379;50.962;6.960;2023-08-17T02:04:24;7.03;;;5.65;;
35245;SDS011;21379;50.962;6.960;2023-08-17T02:06:51;9.48;;;5.35;;
35245;SDS011;21379;50.962;6.960;2023-08-17T02:09:19;12.23;;;5.82;;
35245;SDS011;21379;50.962;6.960;2023-08-17T02:11:45;9.63;;;5.88;;
35245;SDS011;21379;50.962;6.960;2023-08-17T02:14:13;7.50;;;5.57;;
35245;SDS011;21379;50.962;6.960;2023-08-17T02:16:40;7.85;;;5.78;;
35245;SDS011;21379;50.962;6.960;2023-08-17T02:19:07;7.63;;;5.00;;
35245;SDS011;21379;50.962;6.960;2023-08-17T02:21:33;8.13;;;5.55;;
35245;SDS011;21379;50.962;6.960;2023-08-17T02:24:00;8.52;;;5.93;;
35245;SDS011;21379;50.962;6.960;2023-08-17T02:26:27;6.75;;;5.47;;
35245;SDS011;21379;50.962;6.960;2023-08-17T02:28:55;5.75;;;5.22;;
35245;SDS011;21379;50.962;6.960;2023-08-17T02:31:24;7.63;;;5.78;;
35245;SDS011;21379;50.962;6.960;2023-08-17T02:33:51;6.63;;;5.40;;
35245;SDS011;21379;50.962;6.960;2023-08-17T02:36:18;5.60;;;4.57;;
35245;SDS011;21379;50.962;6.960;2023-08-17T02:38:45;8.40;;;5.57;;
35245;SDS011;21379;50.962;6.960;2023-08-17T02:41:11;5.65;;;5.03;;
35245;SDS011;21379;50.962;6.960;2023-08-17T02:43:38;10.30;;;5.60;;
35245;SDS011;21379;50.962;6.960;2023-08-17T02:46:05;9.80;;;5.40;;
35245;SDS011;21379;50.962;6.960;2023-08-17T02:48:33;9.32;;;5.43;;
35245;SDS011;21379;50.962;6.960;2023-08-17T02:51:00;8.30;;;5.35;;
35245;SDS011;21379;50.962;6.960;2023-08-17T02:53:27;6.18;;;5.43;;
35245;SDS011;21379;50.962;6.960;2023-08-17T02:55:54;6.43;;;5.75;;
35245;SDS011;21379;50.962;6.960;2023-08-17T02:58:20;7.60;;;5.20;;
35245;SDS011;21379;50.962;6.960;2023-08-17T03:00:47;6.22;;;4.88;;
35245;SDS011;21379;50.962;6.960;2023-08-17T03:03:14;9.68;;;6.18;;
35245;SDS011;21379;50.962;6.960;2023-08-17T03:05:42;7.18;;;5.68;;
35245;SDS011;21379;50.962;6.960;2023-08-17T03:08:09;7.45;;;5.22;;
35245;SDS011;21379;50.962;6.960;2023-08-17T03:10:36;7.93;;;5.63;;
35245;SDS011;21379;50.962;6.960;2023-08-17T03:13:03;6.25;;;5.47;;
35245;SDS011;21379;50.962;6.960;2023-08-17T03:15:30;7.55;;;4.88;;
35245;SDS011;21379;50.962;6.960;2023-08-17T03:17:57;6.20;;;5.05;;
35245;SDS011;21379;50.962;6.960;2023-08-17T03:20:23;6.85;;;5.30;;
35245;SDS011;21379;50.962;6.960;2023-08-17T03:22:51;7.70;;;5.45;;
35245;SDS011;21379;50.962;6.960;2023-08-17T03:25:18;5.53;;;4.88;;
35245;SDS011;21379;50.962;6.960;2023-08-17T03:30:13;5.47;;;4.75;;
35245;SDS011;21379;50.962;6.960;2023-08-17T03:32:40;6.68;;;5.22;;
35245;SDS011;21379;50.962;6.960;2023-08-17T03:35:07;7.00;;;5.68;;
35245;SDS011;21379;50.962;6.960;2023-08-17T03:37:35;8.90;;;5.22;;
35245;SDS011;21379;50.962;6.960;2023-08-17T03:40:03;6.47;;;5.00;;
35245;SDS011;21379;50.962;6.960;2023-08-17T03:42:31;6.10;;;5.32;;
35245;SDS011;21379;50.962;6.960;2023-08-17T03:45:00;7.57;;;5.78;;
35245;SDS011;21379;50.962;6.960;2023-08-17T03:47:28;6.13;;;5.32;;
35245;SDS011;21379;50.962;6.960;2023-08-17T03:49:55;8.30;;;5.80;;
35245;SDS011;21379;50.962;6.960;2023-08-17T03:52:21;7.45;;;5.65;;
35245;SDS011;21379;50.962;6.960;2023-08-17T03:54:48;8.00;;;5.28;;
35245;SDS011;21379;50.962;6.960;2023-08-17T03:57:17;6.40;;;5.32;;
35245;SDS011;21379;50.962;6.960;2023-08-17T03:59:44;8.82;;;5.70;;
35245;SDS011;21379;50.962;6.960;2023-08-17T04:02:11;12.60;;;5.93;;
35245;SDS011;21379;50.962;6.960;2023-08-17T04:04:38;7.88;;;6.65;;
35245;SDS011;21379;50.962;6.960;2023-08-17T04:07:04;9.40;;;6.65;;
35245;SDS011;21379;50.962;6.960;2023-08-17T04:09:32;8.57;;;6.88;;
35245;SDS011;21379;50.962;6.960;2023-08-17T04:11:59;9.02;;;7.22;;
35245;SDS011;21379;50.962;6.960;2023-08-17T04:14:27;9.73;;;7.50;;
35245;SDS011;21379;50.962;6.960;2023-08-17T04:16:55;8.38;;;6.88;;
35245;SDS011;21379;50.962;6.960;2023-08-17T04:19:23;9.18;;;6.82;;
35245;SDS011;21379;50.962;6.960;2023-08-17T04:21:49;11.02;;;7.53;;
35245;SDS011;21379;50.962;6.960;2023-08-17T04:24:16;9.25;;;6.95;;
35245;SDS011;21379;50.962;6.960;2023-08-17T04:26:43;8.63;;;7.35;;
35245;SDS011;21379;50.962;6.960;2023-08-17T04:29:09;10.18;;;8.00;;
35245;SDS011;21379;50.962;6.960;2023-08-17T04:31:39;8.23;;;7.43;;
35245;SDS011;21379;50.962;6.960;2023-08-17T04:34:06;9.52;;;7.60;;
35245;SDS011;21379;50.962;6.960;2023-08-17T04:36:33;11.75;;;7.80;;
35245;SDS011;21379;50.962;6.960;2023-08-17T04:39:00;9.50;;;7.50;;
35245;SDS011;21379;50.962;6.960;2023-08-17T04:41:27;10.60;;;8.38;;
35245;SDS011;21379;50.962;6.960;2023-08-17T04:43:54;11.50;;;8.85;;
35245;SDS011;21379;50.962;6.960;2023-08-17T04:46:22;10.98;;;9.00;;
35245;SDS011;21379;50.962;6.960;2023-08-17T04:48:50;12.13;;;8.93;;
35245;SDS011;21379;50.962;6.960;2023-08-17T04:51:17;11.63;;;7.90;;
35245;SDS011;21379;50.962;6.960;2023-08-17T04:53:44;11.73;;;8.13;;
35245;SDS011;21379;50.962;6.960;2023-08-17T04:56:11;9.98;;;7.82;;
35245;SDS011;21379;50.962;6.960;2023-08-17T04:59:05;11.55;;;7.95;;
35245;SDS011;21379;50.962;6.960;2023-08-17T05:01:31;11.38;;;8.02;;
35245;SDS011;21379;50.962;6.960;2023-08-17T05:04:00;11.77;;;7.43;;
35245;SDS011;21379;50.962;6.960;2023-08-17T05:06:27;11.45;;;7.57;;
35245;SDS011;21379;50.962;6.960;2023-08-17T05:08:54;11.23;;;7.63;;
35245;SDS011;21379;50.962;6.960;2023-08-17T05:11:23;9.55;;;7.15;;
35245;SDS011;21379;50.962;6.960;2023-08-17T05:13:50;8.77;;;6.65;;
35245;SDS011;21379;50.962;6.960;2023-08-17T05:16:17;8.32;;;6.35;;
35245;SDS011;21379;50.962;6.960;2023-08-17T05:18:44;8.32;;;7.25;;
35245;SDS011;21379;50.962;6.960;2023-08-17T05:21:15;9.38;;;6.93;;
35245;SDS011;21379;50.962;6.960;2023-08-17T05:23:41;8.00;;;6.32;;
35245;SDS011;21379;50.962;6.960;2023-08-17T05:26:08;6.90;;;6.20;;
35245;SDS011;21379;50.962;6.960;2023-08-17T05:28:35;7.60;;;6.57;;
35245;SDS011;21379;50.962;6.960;2023-08-17T05:31:04;9.48;;;6.63;;
35245;SDS011;21379;50.962;6.960;2023-08-17T05:33:34;9.13;;;7.25;;
35245;SDS011;21379;50.962;6.960;2023-08-17T05:36:00;8.07;;;6.55;;
35245;SDS011;21379;50.962;6.960;2023-08-17T05:38:29;11.00;;;6.68;;
35245;SDS011;21379;50.962;6.960;2023-08-17T05:40:55;10.82;;;6.45;;
35245;SDS011;21379;50.962;6.960;2023-08-17T05:43:22;11.07;;;6.80;;
35245;SDS011;21379;50.962;6.960;2023-08-17T05:45:49;8.02;;;6.53;;
35245;SDS011;21379;50.962;6.960;2023-08-17T05:48:18;7.60;;;6.43;;
35245;SDS011;21379;50.962;6.960;2023-08-17T05:50:45;10.00;;;7.35;;
35245;SDS011;21379;50.962;6.960;2023-08-17T05:53:12;12.13;;;7.70;;
35245;SDS011;21379;50.962;6.960;2023-08-17T05:55:40;7.88;;;6.28;;
35245;SDS011;21379;50.962;6.960;2023-08-17T05:58:07;11.25;;;6.47;;
35245;SDS011;21379;50.962;6.960;2023-08-17T06:00:33;11.00;;;7.25;;
35245;SDS011;21379;50.962;6.960;2023-08-17T06:03:00;9.82;;;6.88;;
35245;SDS011;21379;50.962;6.960;2023-08-17T06:05:27;8.55;;;7.07;;
35245;SDS011;21379;50.962;6.960;2023-08-17T06:07:54;9.10;;;7.32;;
35245;SDS011;21379;50.962;6.960;2023-08-17T06:10:21;10.07;;;7.38;;
35245;SDS011;21379;50.962;6.960;2023-08-17T06:12:51;10.35;;;7.22;;
35245;SDS011;21379;50.962;6.960;2023-08-17T06:15:18;8.52;;;6.68;;
35245;SDS011;21379;50.962;6.960;2023-08-17T06:17:45;9.60;;;6.95;;
35245;SDS011;21379;50.962;6.960;2023-08-17T06:20:12;9.73;;;7.07;;
35245;SDS011;21379;50.962;6.960;2023-08-17T06:22:39;11.13;;;8.60;;
35245;SDS011;21379;50.962;6.960;2023-08-17T06:25:06;10.10;;;7.75;;
35245;SDS011;21379;50.962;6.960;2023-08-17T06:30:01;12.90;;;6.90;;
35245;SDS011;21379;50.962;6.960;2023-08-17T06:32:29;12.73;;;8.23;;
35245;SDS011;21379;50.962;6.960;2023-08-17T06:34:56;12.07;;;7.70;;
35245;SDS011;21379;50.962;6.960;2023-08-17T06:37:23;10.35;;;7.38;;
35245;SDS011;21379;50.962;6.960;2023-08-17T06:39:49;8.75;;;7.03;;
35245;SDS011;21379;50.962;6.960;2023-08-17T06:42:16;10.93;;;7.30;;
35245;SDS011;21379;50.962;6.960;2023-08-17T06:44:43;9.18;;;7.22;;
35245;SDS011;21379;50.962;6.960;2023-08-17T06:47:11;10.80;;;7.70;;
35245;SDS011;21379;50.962;6.960;2023-08-17T06:49:37;10.25;;;7.90;;
35245;SDS011;21379;50.962;6.960;2023-08-17T06:52:04;12.45;;;7.97;;
35245;SDS011;21379;50.962;6.960;2023-08-17T06:54:31;10.68;;;8.07;;
35245;SDS011;21379;50.962;6.960;2023-08-17T06:56:58;11.27;;;7.65;;
35245;SDS011;21379;50.962;6.960;2023-08-17T06:59:25;12.20;;;7.63;;
35245;SDS011;21379;50.962;6.960;2023-08-17T07:01:51;11.38;;;7.93;;
35245;SDS011;21379;50.962;6.960;2023-08-17T07:04:20;11.15;;;7.60;;
35245;SDS011;21379;50.962;6.960;2023-08-17T07:06:46;9.52;;;7.35;;
35245;SDS011;21379;50.962;6.960;2023-08-17T07:09:14;9.52;;;7.72;;
35245;SDS011;21379;50.962;6.960;2023-08-17T07:11:41;13.38;;;8.43;;
35245;SDS011;21379;50.962;6.960;2023-08-17T07:14:07;9.60;;;7.68;;
35245;SDS011;21379;50.962;6.960;2023-08-17T07:16:34;10.88;;;7.72;;
35245;SDS011;21379;50.962;6.960;2023-08-17T07:19:01;13.82;;;7.70;;
35245;SDS011;21379;50.962;6.960;2023-08-17T07:21:30;10.43;;;7.18;;
35245;SDS011;21379;50.962;6.960;2023-08-17T07:23:57;14.60;;;9.40;;
35245;SDS011;21379;50.962;6.960;2023-08-17T07:26:24;12.23;;;8.13;;
35245;SDS011;21379;50.962;6.960;2023-08-17T07:28:50;14.00;;;9.07;;
35245;SDS011;21379;50.962;6.960;2023-08-17T07:31:17;16.00;;;8.90;;
35245;SDS011;21379;50.962;6.960;2023-08-17T07:33:44;15.20;;;10.48;;
35245;SDS011;21379;50.962;6.960;2023-08-17T07:36:10;15.68;;;9.98;;
35245;SDS011;21379;50.962;6.960;2023-08-17T07:38:38;14.90;;;9.68;;
35245;SDS011;21379;50.962;6.960;2023-08-17T07:41:05;12.52;;;8.15;;
35245;SDS011;21379;50.962;6.960;2023-08-17T07:43:32;18.20;;;10.07;;
35245;SDS011;21379;50.962;6.960;2023-08-17T07:45:58;14.52;;;9.15;;
35245;SDS011;21379;50.962;6.960;2023-08-17T07:48:25;13.57;;;8.77;;
35245;SDS011;21379;50.962;6.960;2023-08-17T07:50:52;12.10;;;8.13;;
35245;SDS011;21379;50.962;6.960;2023-08-17T07:53:19;17.48;;;8.75;;
35245;SDS011;21379;50.962;6.960;2023-08-17T07:55:47;12.38;;;8.52;;
35245;SDS011;21379;50.962;6.960;2023-08-17T07:58:14;12.85;;;8.82;;
35245;SDS011;21379;50.962;6.960;2023-08-17T08:00:41;13.82;;;9.00;;
35245;SDS011;21379;50.962;6.960;2023-08-17T08:03:08;11.55;;;8.65;;
35245;SDS011;21379;50.962;6.960;2023-08-17T08:05:35;13.02;;;7.55;;
35245;SDS011;21379;50.962;6.960;2023-08-17T08:08:01;14.77;;;9.65;;
35245;SDS011;21379;50.962;6.960;2023-08-17T08:10:28;15.38;;;9.15;;
35245;SDS011;21379;50.962;6.960;2023-08-17T08:12:56;12.38;;;8.30;;
35245;SDS011;21379;50.962;6.960;2023-08-17T08:15:23;19.85;;;10.88;;
35245;SDS011;21379;50.962;6.960;2023-08-17T08:17:50;19.95;;;11.23;;
35245;SDS011;21379;50.962;6.960;2023-08-17T08:20:17;17.10;;;10.30;;
35245;SDS011;21379;50.962;6.960;2023-08-17T08:22:43;18.45;;;11.43;;
35245;SDS011;21379;50.962;6.960;2023-08-17T08:25:10;18.90;;;11.02;;
35245;SDS011;21379;50.962;6.960;2023-08-17T08:27:37;18.85;;;12.05;;
35245;SDS011;21379;50.962;6.960;2023-08-17T08:30:06;15.80;;;10.18;;
35245;SDS011;21379;50.962;6.960;2023-08-17T08:32:33;16.25;;;10.23;;
35245;SDS011;21379;50.962;6.960;2023-08-17T08:35:00;18.75;;;11.18;;
35245;SDS011;21379;50.962;6.960;2023-08-17T08:37:28;23.90;;;10.07;;
35245;SDS011;21379;50.962;6.960;2023-08-17T08:39:55;18.80;;;10.73;;
35245;SDS011;21379;50.962;6.960;2023-08-17T08:42:22;16.23;;;10.50;;
35245;SDS011;21379;50.962;6.960;2023-08-17T08:44:51;18.50;;;10.05;;
35245;SDS011;21379;50.962;6.960;2023-08-17T08:47:19;18.55;;;10.60;;
35245;SDS011;21379;50.962;6.960;2023-08-17T08:49:49;20.42;;;12.18;;
35245;SDS011;21379;50.962;6.960;2023-08-17T08:52:19;18.45;;;10.93;;
35245;SDS011;21379;50.962;6.960;2023-08-17T08:54:46;19.50;;;10.45;;
35245;SDS011;21379;50.962;6.960;2023-08-17T08:57:16;21.70;;;11.13;;
35245;SDS011;21379;50.962;6.960;2023-08-17T08:59:44;19.25;;;11.65;;
35245;SDS011;21379;50.962;6.960;2023-08-17T09:02:12;20.35;;;11.23;;
35245;SDS011;21379;50.962;6.960;2023-08-17T09:04:42;19.63;;;11.05;;
35245;SDS011;21379;50.962;6.960;2023-08-17T09:07:09;23.58;;;12.30;;
35245;SDS011;21379;50.962;6.960;2023-08-17T09:12:03;25.88;;;12.75;;
35245;SDS011;21379;50.962;6.960;2023-08-17T09:14:31;22.55;;;12.98;;
35245;SDS011;21379;50.962;6.960;2023-08-17T09:16:58;27.25;;;15.98;;
35245;SDS011;21379;50.962;6.960;2023-08-17T09:19:25;27.50;;;15.77;;
35245;SDS011;21379;50.962;6.960;2023-08-17T09:21:53;19.15;;;15.10;;
35245;SDS011;21379;50.962;6.960;2023-08-17T09:24:19;21.35;;;15.32;;
35245;SDS011;21379;50.962;6.960;2023-08-17T09:26:47;20.88;;;14.63;;
35245;SDS011;21379;50.962;6.960;2023-08-17T09:29:18;21.13;;;14.10;;
35245;SDS011;21379;50.962;6.960;2023-08-17T09:31:45;25.05;;;14.77;;
35245;SDS011;21379;50.962;6.960;2023-08-17T09:34:13;27.30;;;17.80;;
35245;SDS011;21379;50.962;6.960;2023-08-17T09:36:41;23.27;;;15.27;;
35245;SDS011;21379;50.962;6.960;2023-08-17T09:39:09;20.58;;;14.77;;
35245;SDS011;21379;50.962;6.960;2023-08-17T09:41:39;19.67;;;13.75;;
35245;SDS011;21379;50.962;6.960;2023-08-17T09:44:07;19.83;;;14.20;;
35245;SDS011;21379;50.962;6.960;2023-08-17T09:46:34;16.73;;;13.25;;
35245;SDS011;21379;50.962;6.960;2023-08-17T09:49:01;19.40;;;13.15;;
35245;SDS011;21379;50.962;6.960;2023-08-17T09:51:29;17.77;;;11.40;;
35245;SDS011;21379;50.962;6.960;2023-08-17T09:53:56;17.67;;;12.68;;
35245;SDS011;21379;50.962;6.960;2023-08-17T09:56:25;16.17;;;12.10;;
35245;SDS011;21379;50.962;6.960;2023-08-17T09:58:53;18.48;;;12.80;;
35245;SDS011;21379;50.962;6.960;2023-08-17T10:01:21;21.58;;;14.13;;
35245;SDS011;21379;50.962;6.960;2023-08-17T10:03:48;16.38;;;13.50;;
35245;SDS011;21379;50.962;6.960;2023-08-17T10:06:17;18.67;;;14.55;;
35245;SDS011;21379;50.962;6.960;2023-08-17T10:08:47;16.73;;;13.95;;
35245;SDS011;21379;50.962;6.960;2023-08-17T10:11:17;19.27;;;14.70;;
35245;SDS011;21379;50.962;6.960;2023-08-17T10:13:48;22.35;;;15.02;;
35245;SDS011;21379;50.962;6.960;2023-08-17T10:16:19;21.73;;;14.90;;
35245;SDS011;21379;50.962;6.960;2023-08-17T10:18:50;20.48;;;14.85;;
35245;SDS011;21379;50.962;6.960;2023-08-17T10:21:23;24.23;;;15.35;;
35245;SDS011;21379;50.962;6.960;2023-08-17T10:23:51;22.60;;;14.70;;
35245;SDS011;21379;50.962;6.960;2023-08-17T10:26:19;26.55;;;15.07;;
35245;SDS011;21379;50.962;6.960;2023-08-17T10:28:47;23.90;;;14.43;;
35245;SDS011;21379;50.962;6.960;2023-08-17T10:31:14;21.38;;;14.15;;
35245;SDS011;21379;50.962;6.960;2023-08-17T10:33:41;23.25;;;14.88;;
35245;SDS011;21379;50.962;6.960;2023-08-17T10:36:11;26.80;;;15.20;;
35245;SDS011;21379;50.962;6.960;2023-08-17T10:38:38;19.85;;;13.05;;
35245;SDS011;21379;50.962;6.960;2023-08-17T10:41:07;19.88;;;13.77;;
35245;SDS011;21379;50.962;6.960;2023-08-17T10:43:34;18.55;;;12.85;;
35245;SDS011;21379;50.962;6.960;2023-08-17T10:46:15;18.38;;;12.43;;
35245;SDS011;21379;50.962;6.960;2023-08-17T10:48:43;18.58;;;12.05;;
35245;SDS011;21379;50.962;6.960;2023-08-17T10:51:09;19.33;;;12.30;;
35245;SDS011;21379;50.962;6.960;2023-08-17T10:53:38;14.32;;;11.60;;
35245;SDS011;21379;50.962;6.960;2023-08-17T10:56:11;17.52;;;12.10;;
35245;SDS011;21379;50.962;6.960;2023-08-17T10:58:38;19.42;;;13.55;;
35245;SDS011;21379;50.962;6.960;2023-08-17T11:01:06;19.05;;;12.32;;
35245;SDS011;21379;50.962;6.960;2023-08-17T11:03:34;19.88;;;13.35;;
35245;SDS011;21379;50.962;6.960;2023-08-17T11:06:13;18.00;;;13.00;;
35245;SDS011;21379;50.962;6.960;2023-08-17T11:08:50;16.58;;;13.10;;
35245;SDS011;21379;50.962;6.960;2023-08-17T11:11:19;15.23;;;10.90;;
35245;SDS011;21379;50.962;6.960;2023-08-17T11:13:46;14.57;;;10.32;;
35245;SDS011;21379;50.962;6.960;2023-08-17T11:16:15;13.63;;;9.68;;
35245;SDS011;21379;50.962;6.960;2023-08-17T11:18:46;15.18;;;9.55;;
35245;SDS011;21379;50.962;6.960;2023-08-17T11:21:14;13.00;;;8.88;;
35245;SDS011;21379;50.962;6.960;2023-08-17T11:23:41;14.13;;;9.27;;
35245;SDS011;21379;50.962;6.960;2023-08-17T11:26:08;12.35;;;8.90;;
35245;SDS011;21379;50.962;6.960;2023-08-17T11:28:35;11.95;;;8.63;;
35245;SDS011;21379;50.962;6.960;2023-08-17T11:31:04;11.82;;;8.35;;
35245;SDS011;21379;50.962;6.960;2023-08-17T11:33:32;11.63;;;8.52;;
35245;SDS011;21379;50.962;6.960;2023-08-17T11:36:01;11.38;;;8.88;;
35245;SDS011;21379;50.962;6.960;2023-08-17T11:38:30;11.38;;;8.65;;
35245;SDS011;21379;50.962;6.960;2023-08-17T11:43:24;12.88;;;8.32;;
35245;SDS011;21379;50.962;6.960;2023-08-17T11:45:51;11.25;;;8.25;;
35245;SDS011;21379;50.962;6.960;2023-08-17T11:48:18;11.23;;;7.88;;
35245;SDS011;21379;50.962;6.960;2023-08-17T11:50:45;12.60;;;7.88;;
35245;SDS011;21379;50.962;6.960;2023-08-17T11:53:13;12.20;;;8.43;;
35245;SDS011;21379;50.962;6.960;2023-08-17T11:55:40;11.98;;;9.00;;
35245;SDS011;21379;50.962;6.960;2023-08-17T11:58:07;10.93;;;8.57;;
35245;SDS011;21379;50.962;6.960;2023-08-17T12:00:34;12.32;;;7.75;;
35245;SDS011;21379;50.962;6.960;2023-08-17T12:03:02;13.45;;;9.00;;
35245;SDS011;21379;50.962;6.960;2023-08-17T12:05:30;12.90;;;8.45;;
35245;SDS011;21379;50.962;6.960;2023-08-17T12:07:57;13.32;;;8.82;;
35245;SDS011;21379;50.962;6.960;2023-08-17T12:10:28;14.50;;;10.18;;
35245;SDS011;21379;50.962;6.960;2023-08-17T12:12:57;11.70;;;7.65;;
35245;SDS011;21379;50.962;6.960;2023-08-17T12:15:24;12.63;;;9.07;;
35245;SDS011;21379;50.962;6.960;2023-08-17T12:20:19;10.98;;;8.70;;
35245;SDS011;21379;50.962;6.960;2023-08-17T12:22:47;15.80;;;10.10;;
35245;SDS011;21379;50.962;6.960;2023-08-17T12:27:42;12.05;;;8.07;;
35245;SDS011;21379;50.962;6.960;2023-08-17T12:30:12;13.45;;;10.02;;
35245;SDS011;21379;50.962;6.960;2023-08-17T12:32:40;12.40;;;8.80;;
35245;SDS011;21379;50.962;6.960;2023-08-17T12:35:07;15.57;;;9.07;;
35245;SDS011;21379;50.962;6.960;2023-08-17T12:37:35;12.30;;;9.25;;
35245;SDS011;21379;50.962;6.960;2023-08-17T12:40:01;9.68;;;8.68;;
35245;SDS011;21379;50.962;6.960;2023-08-17T12:42:30;9.52;;;7.82;;
35245;SDS011;21379;50.962;6.960;2023-08-17T12:44:58;10.85;;;8.43;;
35245;SDS011;21379;50.962;6.960;2023-08-17T12:47:25;14.35;;;9.82;;
35245;SDS011;21379;50.962;6.960;2023-08-17T12:49:51;12.70;;;9.95;;
35245;SDS011;21379;50.962;6.960;2023-08-17T12:52:18;13.00;;;9.40;;
35245;SDS011;21379;50.962;6.960;2023-08-17T12:54:45;14.50;;;11.00;;
35245;SDS011;21379;50.962;6.960;2023-08-17T12:57:12;13.10;;;9.75;;
35245;SDS011;21379;50.962;6.960;2023-08-17T12:59:38;10.85;;;8.75;;
35245;SDS011;21379;50.962;6.960;2023-08-17T13:02:07;11.13;;;9.15;;
35245;SDS011;21379;50.962;6.960;2023-08-17T13:04:33;11.90;;;9.15;;
35245;SDS011;21379;50.962;6.960;2023-08-17T13:07:01;12.32;;;9.30;;
35245;SDS011;21379;50.962;6.960;2023-08-17T13:09:28;12.70;;;9.38;;
35245;SDS011;21379;50.962;6.960;2023-08-17T13:11:55;13.05;;;9.80;;
35245;SDS011;21379;50.962;6.960;2023-08-17T13:14:22;12.50;;;8.65;;
35245;SDS011;21379;50.962;6.960;2023-08-17T13:16:51;12.63;;;9.98;;
35245;SDS011;21379;50.962;6.960;2023-08-17T13:19:19;13.70;;;10.25;;
35245;SDS011;21379;50.962;6.960;2023-08-17T13:21:46;12.80;;;8.85;;
35245;SDS011;21379;50.962;6.960;2023-08-17T13:24:13;13.10;;;10.52;;
35245;SDS011;21379;50.962;6.960;2023-08-17T13:26:39;16.15;;;10.23;;
35245;SDS011;21379;50.962;6.960;2023-08-17T13:29:06;17.60;;;9.95;;
35245;SDS011;21379;50.962;6.960;2023-08-17T13:31:34;14.27;;;9.68;;
35245;SDS011;21379;50.962;6.960;2023-08-17T13:34:01;13.38;;;10.23;;
35245;SDS011;21379;50.962;6.960;2023-08-17T13:38:59;11.93;;;8.50;;
35245;SDS011;21379;50.962;6.960;2023-08-17T13:41:26;12.15;;;8.90;;
35245;SDS011;21379;50.962;6.960;2023-08-17T13:44:02;12.57;;;9.70;;
35245;SDS011;21379;50.962;6.960;2023-08-17T13:48:59;13.05;;;8.95;;
35245;SDS011;21379;50.962;6.960;2023-08-17T13:51:35;16.08;;;9.82;;
35245;SDS011;21379;50.962;6.960;2023-08-17T13:54:03;11.18;;;8.75;;
35245;SDS011;21379;50.962;6.960;2023-08-17T13:58:58;12.40;;;8.90;;
35245;SDS011;21379;50.962;6.960;2023-08-17T14:01:32;14.30;;;9.05;;
35245;SDS011;21379;50.962;6.960;2023-08-17T14:04:02;12.77;;;9.77;;
35245;SDS011;21379;50.962;6.960;2023-08-17T14:06:32;15.88;;;10.70;;
35245;SDS011;21379;50.962;6.960;2023-08-17T14:11:27;14.43;;;9.07;;
35245;SDS011;21379;50.962;6.960;2023-08-17T14:13:54;10.98;;;9.13;;
35245;SDS011;21379;50.962;6.960;2023-08-17T14:16:21;11.13;;;8.82;;
35245;SDS011;21379;50.962;6.960;2023-08-17T14:18:48;11.90;;;8.90;;
35245;SDS011;21379;50.962;6.960;2023-08-17T14:21:15;11.10;;;9.43;;
35245;SDS011;21379;50.962;6.960;2023-08-17T14:23:41;10.98;;;8.93;;
35245;SDS011;21379;50.962;6.960;2023-08-17T14:26:11;12.23;;;8.68;;
35245;SDS011;21379;50.962;6.960;2023-08-17T14:28:37;13.13;;;8.73;;
35245;SDS011;21379;50.962;6.960;2023-08-17T14:31:04;11.45;;;9.40;;
35245;SDS011;21379;50.962;6.960;2023-08-17T14:33:31;11.73;;;9.02;;
35245;SDS011;21379;50.962;6.960;2023-08-17T14:35:58;10.90;;;8.18;;
35245;SDS011;21379;50.962;6.960;2023-08-17T14:38:24;10.63;;;8.23;;
35245;SDS011;21379;50.962;6.960;2023-08-17T14:40:51;13.25;;;8.43;;
35245;SDS011;21379;50.962;6.960;2023-08-17T14:43:19;10.02;;;8.02;;
35245;SDS011;21379;50.962;6.960;2023-08-17T14:45:46;11.68;;;7.75;;
35245;SDS011;21379;50.962;6.960;2023-08-17T14:48:12;10.68;;;7.18;;
35245;SDS011;21379;50.962;6.960;2023-08-17T14:50:39;9.75;;;7.20;;
35245;SDS011;21379;50.962;6.960;2023-08-17T14:53:06;9.27;;;7.00;;
35245;SDS011;21379;50.962;6.960;2023-08-17T14:55:33;8.32;;;6.75;;
35245;SDS011;21379;50.962;6.960;2023-08-17T14:58:00;7.53;;;6.05;;
35245;SDS011;21379;50.962;6.960;2023-08-17T15:00:28;8.18;;;6.53;;
35245;SDS011;21379;50.962;6.960;2023-08-17T15:02:55;8.07;;;6.78;;
35245;SDS011;21379;50.962;6.960;2023-08-17T15:05:22;8.95;;;7.15;;